sensor_id;sensor_type;location;lat;lon;timestamp;P1;durP1;ratioP1;P2;durP2;ratioP2
77222;SDS011;66218;48.928;9.140;2023-05-07T00:01:25;4.90;;;1.85;;
77222;SDS011;66218;48.928;9.140;2023-05-07T00:03:51;4.65;;;2.50;;
77222;SDS011;66218;48.928;9.140;2023-05-07T00:06:16;5.60;;;3.05;;
77222;SDS011;66218;48.928;9.140;2023-05-07T00:08:42;5.13;;;2.22;;
77222;SDS011;66218;48.928;9.140;2023-05-07T00:11:07;5.57;;;1.75;;
77222;SDS011;66218;48.928;9.140;2023-05-07T00:13:32;3.55;;;1.77;;
77222;SDS011;66218;48.928;9.140;2023-05-07T00:16:00;5.78;;;2.28;;
77222;SDS011;66218;48.928;9.140;2023-05-07T00:18:32;2.75;;;1.42;;
77222;SDS011;66218;48.928;9.140;2023-05-07T00:20:57;4.72;;;1.42;;
77222;SDS011;66218;48.928;9.140;2023-05-07T00:23:23;3.50;;;1.77;;
77222;SDS011;66218;48.928;9.140;2023-05-07T00:25:48;3.70;;;1.48;;
77222;SDS011;66218;48.928;9.140;2023-05-07T00:28:13;2.92;;;1.67;;
77222;SDS011;66218;48.928;9.140;2023-05-07T00:30:39;3.63;;;1.50;;
77222;SDS011;66218;48.928;9.140;2023-05-07T00:33:04;1.92;;;1.20;;
77222;SDS011;66218;48.928;9.140;2023-05-07T00:35:29;4.18;;;1.98;;
77222;SDS011;66218;48.928;9.140;2023-05-07T00:37:55;3.33;;;1.85;;
77222;SDS011;66218;48.928;9.140;2023-05-07T00:40:20;3.78;;;1.80;;
77222;SDS011;66218;48.928;9.140;2023-05-07T00:42:46;3.88;;;1.77;;
77222;SDS011;66218;48.928;9.140;2023-05-07T00:45:12;3.83;;;1.70;;
77222;SDS011;66218;48.928;9.140;2023-05-07T00:50:04;4.40;;;1.67;;
77222;SDS011;66218;48.928;9.140;2023-05-07T00:52:30;5.03;;;1.80;;
77222;SDS011;66218;48.928;9.140;2023-05-07T00:54:55;3.92;;;2.13;;
77222;SDS011;66218;48.928;9.140;2023-05-07T00:57:21;4.00;;;2.28;;
77222;SDS011;66218;48.928;9.140;2023-05-07T00:59:47;5.30;;;2.00;;
77222;SDS011;66218;48.928;9.140;2023-05-07T01:02:13;3.75;;;1.92;;
77222;SDS011;66218;48.928;9.140;2023-05-07T01:04:39;4.03;;;1.80;;
77222;SDS011;66218;48.928;9.140;2023-05-07T01:07:04;3.78;;;2.00;;
77222;SDS011;66218;48.928;9.140;2023-05-07T01:09:30;3.17;;;1.55;;
77222;SDS011;66218;48.928;9.140;2023-05-07T01:11:56;4.55;;;1.80;;
77222;SDS011;66218;48.928;9.140;2023-05-07T01:14:23;3.75;;;2.13;;
77222;SDS011;66218;48.928;9.140;2023-05-07T01:16:48;5.22;;;2.50;;
77222;SDS011;66218;48.928;9.140;2023-05-07T01:19:16;4.57;;;2.70;;
77222;SDS011;66218;48.928;9.140;2023-05-07T01:21:47;5.97;;;2.88;;
77222;SDS011;66218;48.928;9.140;2023-05-07T01:24:13;6.38;;;2.50;;
77222;SDS011;66218;48.928;9.140;2023-05-07T01:29:05;4.25;;;1.98;;
77222;SDS011;66218;48.928;9.140;2023-05-07T01:31:30;4.10;;;2.58;;
77222;SDS011;66218;48.928;9.140;2023-05-07T01:33:57;5.38;;;2.42;;
77222;SDS011;66218;48.928;9.140;2023-05-07T01:36:25;3.75;;;1.95;;
77222;SDS011;66218;48.928;9.140;2023-05-07T01:38:52;5.78;;;2.20;;
77222;SDS011;66218;48.928;9.140;2023-05-07T01:41:19;5.28;;;2.33;;
77222;SDS011;66218;48.928;9.140;2023-05-07T01:43:44;4.43;;;1.92;;
77222;SDS011;66218;48.928;9.140;2023-05-07T01:48:37;3.35;;;1.58;;
77222;SDS011;66218;48.928;9.140;2023-05-07T01:51:03;5.45;;;1.63;;
77222;SDS011;66218;48.928;9.140;2023-05-07T01:53:32;3.50;;;1.80;;
77222;SDS011;66218;48.928;9.140;2023-05-07T01:56:01;5.15;;;2.05;;
77222;SDS011;66218;48.928;9.140;2023-05-07T01:58:26;4.57;;;2.03;;
77222;SDS011;66218;48.928;9.140;2023-05-07T02:00:51;2.88;;;1.55;;
77222;SDS011;66218;48.928;9.140;2023-05-07T02:03:16;4.13;;;2.83;;
77222;SDS011;66218;48.928;9.140;2023-05-07T02:05:42;3.47;;;1.90;;
77222;SDS011;66218;48.928;9.140;2023-05-07T02:08:07;4.60;;;2.22;;
77222;SDS011;66218;48.928;9.140;2023-05-07T02:10:32;3.45;;;2.13;;
77222;SDS011;66218;48.928;9.140;2023-05-07T02:12:58;6.05;;;2.42;;
77222;SDS011;66218;48.928;9.140;2023-05-07T02:15:24;4.53;;;2.38;;
77222;SDS011;66218;48.928;9.140;2023-05-07T02:20:28;2.88;;;1.77;;
77222;SDS011;66218;48.928;9.140;2023-05-07T02:22:54;5.05;;;2.17;;
77222;SDS011;66218;48.928;9.140;2023-05-07T02:25:19;5.63;;;2.17;;
77222;SDS011;66218;48.928;9.140;2023-05-07T02:27:44;8.70;;;2.38;;
77222;SDS011;66218;48.928;9.140;2023-05-07T02:30:10;5.38;;;2.30;;
77222;SDS011;66218;48.928;9.140;2023-05-07T02:32:35;4.80;;;2.22;;
77222;SDS011;66218;48.928;9.140;2023-05-07T02:35:01;4.18;;;2.30;;
77222;SDS011;66218;48.928;9.140;2023-05-07T02:37:26;5.25;;;2.88;;
77222;SDS011;66218;48.928;9.140;2023-05-07T02:39:51;6.22;;;2.70;;
77222;SDS011;66218;48.928;9.140;2023-05-07T02:42:16;6.43;;;2.50;;
77222;SDS011;66218;48.928;9.140;2023-05-07T02:44:42;5.32;;;2.35;;
77222;SDS011;66218;48.928;9.140;2023-05-07T02:47:07;6.07;;;2.92;;
77222;SDS011;66218;48.928;9.140;2023-05-07T02:49:34;4.68;;;2.20;;
77222;SDS011;66218;48.928;9.140;2023-05-07T02:52:00;4.53;;;1.88;;
77222;SDS011;66218;48.928;9.140;2023-05-07T02:54:25;8.45;;;2.42;;
77222;SDS011;66218;48.928;9.140;2023-05-07T02:56:50;4.38;;;2.47;;
77222;SDS011;66218;48.928;9.140;2023-05-07T02:59:16;4.45;;;2.72;;
77222;SDS011;66218;48.928;9.140;2023-05-07T03:01:41;4.63;;;2.15;;
77222;SDS011;66218;48.928;9.140;2023-05-07T03:04:08;3.33;;;2.30;;
77222;SDS011;66218;48.928;9.140;2023-05-07T03:06:34;4.65;;;2.53;;
77222;SDS011;66218;48.928;9.140;2023-05-07T03:09:00;7.17;;;2.43;;
77222;SDS011;66218;48.928;9.140;2023-05-07T03:11:25;3.63;;;2.22;;
77222;SDS011;66218;48.928;9.140;2023-05-07T03:13:50;3.45;;;1.95;;
77222;SDS011;66218;48.928;9.140;2023-05-07T03:16:16;5.28;;;2.33;;
77222;SDS011;66218;48.928;9.140;2023-05-07T03:18:41;4.70;;;2.15;;
77222;SDS011;66218;48.928;9.140;2023-05-07T03:21:06;4.13;;;2.40;;
77222;SDS011;66218;48.928;9.140;2023-05-07T03:23:31;4.75;;;2.15;;
77222;SDS011;66218;48.928;9.140;2023-05-07T03:25:57;5.22;;;2.25;;
77222;SDS011;66218;48.928;9.140;2023-05-07T03:28:22;3.33;;;2.03;;
77222;SDS011;66218;48.928;9.140;2023-05-07T03:30:47;8.95;;;2.20;;
77222;SDS011;66218;48.928;9.140;2023-05-07T03:33:13;3.78;;;1.90;;
77222;SDS011;66218;48.928;9.140;2023-05-07T03:35:38;3.45;;;2.00;;
77222;SDS011;66218;48.928;9.140;2023-05-07T03:38:04;5.68;;;2.70;;
77222;SDS011;66218;48.928;9.140;2023-05-07T03:40:29;4.63;;;2.53;;
77222;SDS011;66218;48.928;9.140;2023-05-07T03:42:55;4.97;;;1.92;;
77222;SDS011;66218;48.928;9.140;2023-05-07T03:45:20;4.93;;;2.50;;
77222;SDS011;66218;48.928;9.140;2023-05-07T03:47:45;3.97;;;1.95;;
77222;SDS011;66218;48.928;9.140;2023-05-07T03:50:10;4.22;;;2.05;;
77222;SDS011;66218;48.928;9.140;2023-05-07T03:52:36;3.20;;;2.30;;
77222;SDS011;66218;48.928;9.140;2023-05-07T03:55:01;5.32;;;2.75;;
77222;SDS011;66218;48.928;9.140;2023-05-07T03:57:26;3.78;;;2.00;;
77222;SDS011;66218;48.928;9.140;2023-05-07T03:59:52;3.25;;;2.03;;
77222;SDS011;66218;48.928;9.140;2023-05-07T04:02:17;3.23;;;1.97;;
77222;SDS011;66218;48.928;9.140;2023-05-07T04:04:42;4.43;;;1.95;;
77222;SDS011;66218;48.928;9.140;2023-05-07T04:07:07;4.53;;;2.30;;
77222;SDS011;66218;48.928;9.140;2023-05-07T04:09:33;5.75;;;2.90;;
77222;SDS011;66218;48.928;9.140;2023-05-07T04:11:58;4.40;;;2.13;;
77222;SDS011;66218;48.928;9.140;2023-05-07T04:14:23;7.18;;;2.47;;
77222;SDS011;66218;48.928;9.140;2023-05-07T04:16:49;4.32;;;2.45;;
77222;SDS011;66218;48.928;9.140;2023-05-07T04:19:14;4.57;;;2.33;;
77222;SDS011;66218;48.928;9.140;2023-05-07T04:21:39;4.10;;;2.17;;
77222;SDS011;66218;48.928;9.140;2023-05-07T04:24:05;3.67;;;2.15;;
77222;SDS011;66218;48.928;9.140;2023-05-07T04:26:30;5.30;;;1.80;;
77222;SDS011;66218;48.928;9.140;2023-05-07T04:28:56;3.72;;;1.58;;
77222;SDS011;66218;48.928;9.140;2023-05-07T04:31:24;4.82;;;1.95;;
77222;SDS011;66218;48.928;9.140;2023-05-07T04:33:49;4.30;;;2.20;;
77222;SDS011;66218;48.928;9.140;2023-05-07T04:36:15;3.67;;;2.45;;
77222;SDS011;66218;48.928;9.140;2023-05-07T04:38:41;3.70;;;1.50;;
77222;SDS011;66218;48.928;9.140;2023-05-07T04:41:06;6.35;;;2.53;;
77222;SDS011;66218;48.928;9.140;2023-05-07T04:43:33;5.60;;;2.90;;
77222;SDS011;66218;48.928;9.140;2023-05-07T04:45:58;3.78;;;2.25;;
77222;SDS011;66218;48.928;9.140;2023-05-07T04:48:24;5.25;;;2.63;;
77222;SDS011;66218;48.928;9.140;2023-05-07T04:50:50;7.28;;;2.28;;
77222;SDS011;66218;48.928;9.140;2023-05-07T04:53:16;3.65;;;1.73;;
77222;SDS011;66218;48.928;9.140;2023-05-07T04:55:42;3.40;;;1.92;;
77222;SDS011;66218;48.928;9.140;2023-05-07T04:58:07;6.30;;;2.25;;
77222;SDS011;66218;48.928;9.140;2023-05-07T05:00:33;3.45;;;2.00;;
77222;SDS011;66218;48.928;9.140;2023-05-07T05:02:59;3.63;;;1.83;;
77222;SDS011;66218;48.928;9.140;2023-05-07T05:05:24;4.05;;;2.28;;
77222;SDS011;66218;48.928;9.140;2023-05-07T05:07:49;5.22;;;2.42;;
77222;SDS011;66218;48.928;9.140;2023-05-07T05:10:16;4.47;;;2.28;;
77222;SDS011;66218;48.928;9.140;2023-05-07T05:12:42;4.72;;;2.65;;
77222;SDS011;66218;48.928;9.140;2023-05-07T05:15:08;4.80;;;2.30;;
77222;SDS011;66218;48.928;9.140;2023-05-07T05:17:34;6.13;;;2.75;;
77222;SDS011;66218;48.928;9.140;2023-05-07T05:20:00;3.85;;;2.30;;
77222;SDS011;66218;48.928;9.140;2023-05-07T05:22:25;5.55;;;3.25;;
77222;SDS011;66218;48.928;9.140;2023-05-07T05:24:50;4.57;;;1.98;;
77222;SDS011;66218;48.928;9.140;2023-05-07T05:27:16;3.15;;;2.17;;
77222;SDS011;66218;48.928;9.140;2023-05-07T05:29:41;4.22;;;2.50;;
77222;SDS011;66218;48.928;9.140;2023-05-07T05:32:06;4.38;;;2.60;;
77222;SDS011;66218;48.928;9.140;2023-05-07T05:34:32;4.55;;;2.40;;
77222;SDS011;66218;48.928;9.140;2023-05-07T05:36:58;7.43;;;2.50;;
77222;SDS011;66218;48.928;9.140;2023-05-07T05:39:24;4.18;;;2.00;;
77222;SDS011;66218;48.928;9.140;2023-05-07T05:41:49;5.38;;;2.10;;
77222;SDS011;66218;48.928;9.140;2023-05-07T05:44:14;4.65;;;2.67;;
77222;SDS011;66218;48.928;9.140;2023-05-07T05:46:40;4.38;;;2.22;;
77222;SDS011;66218;48.928;9.140;2023-05-07T05:49:05;2.95;;;2.00;;
77222;SDS011;66218;48.928;9.140;2023-05-07T05:51:30;4.85;;;2.30;;
77222;SDS011;66218;48.928;9.140;2023-05-07T05:53:56;4.15;;;2.55;;
77222;SDS011;66218;48.928;9.140;2023-05-07T05:56:21;7.30;;;2.42;;
77222;SDS011;66218;48.928;9.140;2023-05-07T05:58:46;4.82;;;2.65;;
77222;SDS011;66218;48.928;9.140;2023-05-07T06:01:12;4.45;;;2.55;;
77222;SDS011;66218;48.928;9.140;2023-05-07T06:03:37;3.42;;;1.90;;
77222;SDS011;66218;48.928;9.140;2023-05-07T06:06:05;4.00;;;2.05;;
77222;SDS011;66218;48.928;9.140;2023-05-07T06:08:34;4.57;;;2.55;;
77222;SDS011;66218;48.928;9.140;2023-05-07T06:10:59;3.13;;;2.00;;
77222;SDS011;66218;48.928;9.140;2023-05-07T06:13:26;3.15;;;1.85;;
77222;SDS011;66218;48.928;9.140;2023-05-07T06:15:52;3.55;;;2.00;;
77222;SDS011;66218;48.928;9.140;2023-05-07T06:18:17;3.15;;;1.30;;
77222;SDS011;66218;48.928;9.140;2023-05-07T06:20:42;2.85;;;1.83;;
77222;SDS011;66218;48.928;9.140;2023-05-07T06:23:07;3.03;;;1.75;;
77222;SDS011;66218;48.928;9.140;2023-05-07T06:25:33;2.63;;;1.70;;
77222;SDS011;66218;48.928;9.140;2023-05-07T06:27:58;3.42;;;1.65;;
77222;SDS011;66218;48.928;9.140;2023-05-07T06:30:23;3.90;;;1.70;;
77222;SDS011;66218;48.928;9.140;2023-05-07T06:32:49;3.72;;;1.80;;
77222;SDS011;66218;48.928;9.140;2023-05-07T06:35:14;2.65;;;1.63;;
77222;SDS011;66218;48.928;9.140;2023-05-07T06:37:40;4.75;;;2.05;;
77222;SDS011;66218;48.928;9.140;2023-05-07T06:40:07;2.67;;;1.70;;
77222;SDS011;66218;48.928;9.140;2023-05-07T06:42:33;4.00;;;1.65;;
77222;SDS011;66218;48.928;9.140;2023-05-07T06:44:58;2.65;;;1.27;;
77222;SDS011;66218;48.928;9.140;2023-05-07T06:47:24;3.17;;;1.75;;
77222;SDS011;66218;48.928;9.140;2023-05-07T06:49:49;2.67;;;1.73;;
77222;SDS011;66218;48.928;9.140;2023-05-07T06:52:14;2.63;;;1.63;;
77222;SDS011;66218;48.928;9.140;2023-05-07T06:54:39;2.70;;;1.33;;
77222;SDS011;66218;48.928;9.140;2023-05-07T06:57:05;4.88;;;1.42;;
77222;SDS011;66218;48.928;9.140;2023-05-07T06:59:30;3.15;;;1.55;;
77222;SDS011;66218;48.928;9.140;2023-05-07T07:01:55;1.60;;;1.13;;
77222;SDS011;66218;48.928;9.140;2023-05-07T07:04:21;2.55;;;1.50;;
77222;SDS011;66218;48.928;9.140;2023-05-07T07:06:48;5.63;;;1.48;;
77222;SDS011;66218;48.928;9.140;2023-05-07T07:09:13;3.97;;;1.10;;
77222;SDS011;66218;48.928;9.140;2023-05-07T07:11:38;4.00;;;1.10;;
77222;SDS011;66218;48.928;9.140;2023-05-07T07:14:03;1.90;;;1.33;;
77222;SDS011;66218;48.928;9.140;2023-05-07T07:16:30;1.83;;;1.08;;
77222;SDS011;66218;48.928;9.140;2023-05-07T07:18:55;2.85;;;1.20;;
77222;SDS011;66218;48.928;9.140;2023-05-07T07:21:20;3.75;;;1.20;;
77222;SDS011;66218;48.928;9.140;2023-05-07T07:23:45;3.25;;;1.30;;
77222;SDS011;66218;48.928;9.140;2023-05-07T07:26:11;2.15;;;1.15;;
77222;SDS011;66218;48.928;9.140;2023-05-07T07:28:41;1.77;;;1.15;;
77222;SDS011;66218;48.928;9.140;2023-05-07T07:31:07;2.25;;;1.30;;
77222;SDS011;66218;48.928;9.140;2023-05-07T07:33:33;1.63;;;1.23;;
77222;SDS011;66218;48.928;9.140;2023-05-07T07:35:58;2.78;;;1.50;;
77222;SDS011;66218;48.928;9.140;2023-05-07T07:38:23;2.63;;;1.33;;
77222;SDS011;66218;48.928;9.140;2023-05-07T07:40:48;2.50;;;1.30;;
77222;SDS011;66218;48.928;9.140;2023-05-07T07:43:14;2.55;;;1.23;;
77222;SDS011;66218;48.928;9.140;2023-05-07T07:45:39;2.67;;;1.27;;
77222;SDS011;66218;48.928;9.140;2023-05-07T07:48:05;2.17;;;1.20;;
77222;SDS011;66218;48.928;9.140;2023-05-07T07:50:30;2.92;;;1.30;;
77222;SDS011;66218;48.928;9.140;2023-05-07T07:52:55;3.97;;;1.40;;
77222;SDS011;66218;48.928;9.140;2023-05-07T07:55:22;2.35;;;1.02;;
77222;SDS011;66218;48.928;9.140;2023-05-07T07:57:48;2.83;;;1.63;;
77222;SDS011;66218;48.928;9.140;2023-05-07T08:00:14;1.75;;;1.20;;
77222;SDS011;66218;48.928;9.140;2023-05-07T08:02:40;3.55;;;1.48;;
77222;SDS011;66218;48.928;9.140;2023-05-07T08:05:06;2.83;;;1.48;;
77222;SDS011;66218;48.928;9.140;2023-05-07T08:07:31;2.15;;;1.30;;
77222;SDS011;66218;48.928;9.140;2023-05-07T08:09:59;2.35;;;1.33;;
77222;SDS011;66218;48.928;9.140;2023-05-07T08:12:36;3.15;;;1.58;;
77222;SDS011;66218;48.928;9.140;2023-05-07T08:15:10;2.65;;;1.25;;
77222;SDS011;66218;48.928;9.140;2023-05-07T08:17:35;4.30;;;1.45;;
77222;SDS011;66218;48.928;9.140;2023-05-07T08:20:01;2.55;;;1.50;;
77222;SDS011;66218;48.928;9.140;2023-05-07T08:22:26;3.17;;;1.23;;
77222;SDS011;66218;48.928;9.140;2023-05-07T08:24:51;2.38;;;1.27;;
77222;SDS011;66218;48.928;9.140;2023-05-07T08:27:18;3.50;;;2.05;;
77222;SDS011;66218;48.928;9.140;2023-05-07T08:29:46;2.28;;;1.48;;
77222;SDS011;66218;48.928;9.140;2023-05-07T08:32:12;2.03;;;1.40;;
77222;SDS011;66218;48.928;9.140;2023-05-07T08:34:38;2.85;;;1.60;;
77222;SDS011;66218;48.928;9.140;2023-05-07T08:37:04;1.50;;;1.23;;
77222;SDS011;66218;48.928;9.140;2023-05-07T08:39:29;7.00;;;2.00;;
77222;SDS011;66218;48.928;9.140;2023-05-07T08:41:57;1.92;;;1.45;;
77222;SDS011;66218;48.928;9.140;2023-05-07T08:44:26;4.40;;;1.83;;
77222;SDS011;66218;48.928;9.140;2023-05-07T08:46:54;4.30;;;1.60;;
77222;SDS011;66218;48.928;9.140;2023-05-07T08:49:25;2.75;;;1.50;;
77222;SDS011;66218;48.928;9.140;2023-05-07T08:51:52;2.53;;;1.33;;
77222;SDS011;66218;48.928;9.140;2023-05-07T08:54:21;3.42;;;1.85;;
77222;SDS011;66218;48.928;9.140;2023-05-07T08:56:46;3.80;;;1.40;;
77222;SDS011;66218;48.928;9.140;2023-05-07T08:59:11;4.53;;;1.50;;
77222;SDS011;66218;48.928;9.140;2023-05-07T09:01:37;2.65;;;1.75;;
77222;SDS011;66218;48.928;9.140;2023-05-07T09:04:03;3.65;;;1.50;;
77222;SDS011;66218;48.928;9.140;2023-05-07T09:06:29;1.98;;;1.38;;
77222;SDS011;66218;48.928;9.140;2023-05-07T09:08:55;5.03;;;1.38;;
77222;SDS011;66218;48.928;9.140;2023-05-07T09:11:21;2.55;;;1.10;;
77222;SDS011;66218;48.928;9.140;2023-05-07T09:13:47;2.65;;;1.80;;
77222;SDS011;66218;48.928;9.140;2023-05-07T09:16:13;3.65;;;1.60;;
77222;SDS011;66218;48.928;9.140;2023-05-07T09:21:11;2.65;;;1.65;;
77222;SDS011;66218;48.928;9.140;2023-05-07T09:23:39;2.22;;;1.52;;
77222;SDS011;66218;48.928;9.140;2023-05-07T09:26:05;3.95;;;1.35;;
77222;SDS011;66218;48.928;9.140;2023-05-07T09:28:37;4.35;;;1.63;;
77222;SDS011;66218;48.928;9.140;2023-05-07T09:31:04;2.90;;;1.90;;
77222;SDS011;66218;48.928;9.140;2023-05-07T09:33:29;3.47;;;1.70;;
77222;SDS011;66218;48.928;9.140;2023-05-07T09:35:55;3.75;;;1.85;;
77222;SDS011;66218;48.928;9.140;2023-05-07T09:38:20;2.58;;;1.73;;
77222;SDS011;66218;48.928;9.140;2023-05-07T09:40:46;2.95;;;1.80;;
77222;SDS011;66218;48.928;9.140;2023-05-07T09:43:12;4.30;;;2.40;;
77222;SDS011;66218;48.928;9.140;2023-05-07T09:45:38;3.45;;;1.80;;
77222;SDS011;66218;48.928;9.140;2023-05-07T09:48:04;2.95;;;1.58;;
77222;SDS011;66218;48.928;9.140;2023-05-07T09:50:49;3.03;;;1.88;;
77222;SDS011;66218;48.928;9.140;2023-05-07T09:53:17;3.42;;;2.08;;
77222;SDS011;66218;48.928;9.140;2023-05-07T09:55:42;3.72;;;1.75;;
77222;SDS011;66218;48.928;9.140;2023-05-07T09:58:08;4.38;;;1.80;;
77222;SDS011;66218;48.928;9.140;2023-05-07T10:00:34;3.00;;;1.48;;
77222;SDS011;66218;48.928;9.140;2023-05-07T10:05:57;1.95;;;1.33;;
77222;SDS011;66218;48.928;9.140;2023-05-07T10:08:23;2.95;;;1.67;;
77222;SDS011;66218;48.928;9.140;2023-05-07T10:10:49;1.92;;;1.58;;
77222;SDS011;66218;48.928;9.140;2023-05-07T10:13:15;2.85;;;1.60;;
77222;SDS011;66218;48.928;9.140;2023-05-07T10:15:42;2.17;;;1.65;;
77222;SDS011;66218;48.928;9.140;2023-05-07T10:18:07;3.42;;;1.60;;
77222;SDS011;66218;48.928;9.140;2023-05-07T10:20:33;5.25;;;1.80;;
77222;SDS011;66218;48.928;9.140;2023-05-07T10:23:01;2.63;;;1.95;;
77222;SDS011;66218;48.928;9.140;2023-05-07T10:25:30;2.10;;;1.60;;
77222;SDS011;66218;48.928;9.140;2023-05-07T10:27:57;3.38;;;1.45;;
77222;SDS011;66218;48.928;9.140;2023-05-07T10:33:03;3.03;;;1.83;;
77222;SDS011;66218;48.928;9.140;2023-05-07T10:35:31;3.42;;;1.80;;
77222;SDS011;66218;48.928;9.140;2023-05-07T10:38:04;3.75;;;1.77;;
77222;SDS011;66218;48.928;9.140;2023-05-07T10:40:30;2.75;;;1.65;;
77222;SDS011;66218;48.928;9.140;2023-05-07T10:42:59;3.22;;;1.50;;
77222;SDS011;66218;48.928;9.140;2023-05-07T10:45:26;3.05;;;1.50;;
77222;SDS011;66218;48.928;9.140;2023-05-07T10:50:40;2.45;;;1.40;;
77222;SDS011;66218;48.928;9.140;2023-05-07T10:55:42;4.30;;;1.83;;
77222;SDS011;66218;48.928;9.140;2023-05-07T10:58:28;8.23;;;1.92;;
77222;SDS011;66218;48.928;9.140;2023-05-07T11:00:57;3.60;;;1.20;;
77222;SDS011;66218;48.928;9.140;2023-05-07T11:03:24;2.58;;;1.52;;
77222;SDS011;66218;48.928;9.140;2023-05-07T11:11:18;3.15;;;1.35;;
77222;SDS011;66218;48.928;9.140;2023-05-07T11:13:45;1.98;;;1.33;;
77222;SDS011;66218;48.928;9.140;2023-05-07T11:16:18;2.70;;;1.55;;
77222;SDS011;66218;48.928;9.140;2023-05-07T11:18:52;2.38;;;1.60;;
77222;SDS011;66218;48.928;9.140;2023-05-07T11:24:07;2.47;;;1.33;;
77222;SDS011;66218;48.928;9.140;2023-05-07T11:26:47;4.78;;;1.73;;
77222;SDS011;66218;48.928;9.140;2023-05-07T11:31:42;3.33;;;1.52;;
77222;SDS011;66218;48.928;9.140;2023-05-07T11:34:08;1.88;;;1.70;;
77222;SDS011;66218;48.928;9.140;2023-05-07T11:39:00;2.08;;;1.55;;
77222;SDS011;66218;48.928;9.140;2023-05-07T11:41:35;2.45;;;1.52;;
77222;SDS011;66218;48.928;9.140;2023-05-07T11:44:02;2.85;;;1.30;;
77222;SDS011;66218;48.928;9.140;2023-05-07T11:46:28;1.35;;;1.20;;
77222;SDS011;66218;48.928;9.140;2023-05-07T11:48:54;2.30;;;1.30;;
77222;SDS011;66218;48.928;9.140;2023-05-07T11:51:20;4.30;;;1.60;;
77222;SDS011;66218;48.928;9.140;2023-05-07T11:53:48;3.45;;;1.50;;
77222;SDS011;66218;48.928;9.140;2023-05-07T11:56:14;2.40;;;1.50;;
77222;SDS011;66218;48.928;9.140;2023-05-07T11:58:42;3.17;;;1.27;;
77222;SDS011;66218;48.928;9.140;2023-05-07T12:01:09;2.58;;;1.23;;
77222;SDS011;66218;48.928;9.140;2023-05-07T12:03:35;2.03;;;1.20;;
77222;SDS011;66218;48.928;9.140;2023-05-07T12:06:07;4.10;;;1.55;;
77222;SDS011;66218;48.928;9.140;2023-05-07T12:11:01;3.55;;;1.58;;
77222;SDS011;66218;48.928;9.140;2023-05-07T12:15:52;2.00;;;1.30;;
77222;SDS011;66218;48.928;9.140;2023-05-07T12:18:20;1.55;;;1.10;;
77222;SDS011;66218;48.928;9.140;2023-05-07T12:20:47;3.25;;;1.58;;
77222;SDS011;66218;48.928;9.140;2023-05-07T12:23:13;1.60;;;1.20;;
77222;SDS011;66218;48.928;9.140;2023-05-07T12:25:39;5.57;;;1.73;;
77222;SDS011;66218;48.928;9.140;2023-05-07T12:28:08;2.45;;;1.50;;
77222;SDS011;66218;48.928;9.140;2023-05-07T12:30:38;2.90;;;1.40;;
77222;SDS011;66218;48.928;9.140;2023-05-07T12:33:04;2.03;;;1.30;;
77222;SDS011;66218;48.928;9.140;2023-05-07T12:37:56;3.38;;;1.48;;
77222;SDS011;66218;48.928;9.140;2023-05-07T12:40:29;1.85;;;1.20;;
77222;SDS011;66218;48.928;9.140;2023-05-07T12:43:01;3.67;;;1.60;;
77222;SDS011;66218;48.928;9.140;2023-05-07T12:47:52;1.80;;;1.10;;
77222;SDS011;66218;48.928;9.140;2023-05-07T12:52:43;6.10;;;1.52;;
77222;SDS011;66218;48.928;9.140;2023-05-07T12:55:12;2.25;;;1.30;;
77222;SDS011;66218;48.928;9.140;2023-05-07T12:57:40;1.35;;;0.95;;
77222;SDS011;66218;48.928;9.140;2023-05-07T13:00:06;1.58;;;1.10;;
77222;SDS011;66218;48.928;9.140;2023-05-07T13:04:58;2.78;;;1.27;;
77222;SDS011;66218;48.928;9.140;2023-05-07T13:07:24;2.70;;;1.50;;
77222;SDS011;66218;48.928;9.140;2023-05-07T13:09:50;2.08;;;1.15;;
77222;SDS011;66218;48.928;9.140;2023-05-07T13:12:15;3.75;;;1.63;;
77222;SDS011;66218;48.928;9.140;2023-05-07T13:17:05;4.07;;;1.53;;
77222;SDS011;66218;48.928;9.140;2023-05-07T13:21:56;3.03;;;1.30;;
77222;SDS011;66218;48.928;9.140;2023-05-07T13:26:47;1.70;;;1.23;;
77222;SDS011;66218;48.928;9.140;2023-05-07T13:31:37;2.43;;;1.50;;
77222;SDS011;66218;48.928;9.140;2023-05-07T13:34:07;1.70;;;1.20;;
77222;SDS011;66218;48.928;9.140;2023-05-07T13:36:32;1.17;;;1.08;;
77222;SDS011;66218;48.928;9.140;2023-05-07T13:39:00;0.90;;;0.82;;
77222;SDS011;66218;48.928;9.140;2023-05-07T13:41:26;0.90;;;0.60;;
77222;SDS011;66218;48.928;9.140;2023-05-07T13:45:34;1.00;;;0.50;;
77222;SDS011;66218;48.928;9.140;2023-05-07T13:48:00;3.65;;;0.77;;
77222;SDS011;66218;48.928;9.140;2023-05-07T13:50:25;0.80;;;0.47;;
77222;SDS011;66218;48.928;9.140;2023-05-07T13:52:54;2.17;;;0.57;;
77222;SDS011;66218;48.928;9.140;2023-05-07T13:55:21;4.25;;;0.68;;
77222;SDS011;66218;48.928;9.140;2023-05-07T13:57:48;1.50;;;0.70;;
77222;SDS011;66218;48.928;9.140;2023-05-07T14:00:20;0.63;;;0.50;;
77222;SDS011;66218;48.928;9.140;2023-05-07T14:02:46;0.82;;;0.55;;
77222;SDS011;66218;48.928;9.140;2023-05-07T14:05:11;1.05;;;0.40;;
77222;SDS011;66218;48.928;9.140;2023-05-07T14:07:38;1.20;;;0.68;;
77222;SDS011;66218;48.928;9.140;2023-05-07T14:10:03;1.45;;;0.70;;
77222;SDS011;66218;48.928;9.140;2023-05-07T14:12:29;1.17;;;0.80;;
77222;SDS011;66218;48.928;9.140;2023-05-07T14:14:55;3.70;;;1.00;;
77222;SDS011;66218;48.928;9.140;2023-05-07T14:17:21;1.52;;;0.43;;
77222;SDS011;66218;48.928;9.140;2023-05-07T14:19:48;1.77;;;0.77;;
77222;SDS011;66218;48.928;9.140;2023-05-07T14:22:13;0.75;;;0.60;;
77222;SDS011;66218;48.928;9.140;2023-05-07T14:24:39;1.17;;;0.63;;
77222;SDS011;66218;48.928;9.140;2023-05-07T14:27:05;1.83;;;0.50;;
77222;SDS011;66218;48.928;9.140;2023-05-07T14:29:30;1.13;;;0.70;;
77222;SDS011;66218;48.928;9.140;2023-05-07T14:32:07;2.10;;;0.95;;
77222;SDS011;66218;48.928;9.140;2023-05-07T14:34:42;1.60;;;1.08;;
77222;SDS011;66218;48.928;9.140;2023-05-07T14:37:07;1.42;;;0.70;;
77222;SDS011;66218;48.928;9.140;2023-05-07T14:39:32;1.88;;;0.98;;
77222;SDS011;66218;48.928;9.140;2023-05-07T14:41:57;1.58;;;1.05;;
77222;SDS011;66218;48.928;9.140;2023-05-07T14:44:23;2.83;;;1.00;;
77222;SDS011;66218;48.928;9.140;2023-05-07T14:46:48;2.95;;;0.93;;
77222;SDS011;66218;48.928;9.140;2023-05-07T14:49:14;2.10;;;0.82;;
77222;SDS011;66218;48.928;9.140;2023-05-07T14:51:42;2.88;;;1.02;;
77222;SDS011;66218;48.928;9.140;2023-05-07T14:54:09;1.90;;;0.98;;
77222;SDS011;66218;48.928;9.140;2023-05-07T14:56:35;1.92;;;1.30;;
77222;SDS011;66218;48.928;9.140;2023-05-07T14:59:00;1.42;;;0.60;;
77222;SDS011;66218;48.928;9.140;2023-05-07T15:01:27;2.60;;;1.20;;
77222;SDS011;66218;48.928;9.140;2023-05-07T15:03:53;4.38;;;1.33;;
77222;SDS011;66218;48.928;9.140;2023-05-07T15:06:18;2.75;;;1.17;;
77222;SDS011;66218;48.928;9.140;2023-05-07T15:08:43;2.85;;;1.08;;
77222;SDS011;66218;48.928;9.140;2023-05-07T15:11:09;1.65;;;1.35;;
77222;SDS011;66218;48.928;9.140;2023-05-07T15:13:34;3.95;;;1.33;;
77222;SDS011;66218;48.928;9.140;2023-05-07T15:15:59;1.55;;;1.15;;
77222;SDS011;66218;48.928;9.140;2023-05-07T15:18:25;2.20;;;1.42;;
77222;SDS011;66218;48.928;9.140;2023-05-07T15:20:50;4.78;;;1.40;;
77222;SDS011;66218;48.928;9.140;2023-05-07T15:23:15;2.90;;;1.58;;
77222;SDS011;66218;48.928;9.140;2023-05-07T15:25:41;2.22;;;1.25;;
77222;SDS011;66218;48.928;9.140;2023-05-07T15:28:06;5.88;;;1.45;;
77222;SDS011;66218;48.928;9.140;2023-05-07T15:30:32;3.22;;;1.27;;
77222;SDS011;66218;48.928;9.140;2023-05-07T15:33:00;4.05;;;1.35;;
77222;SDS011;66218;48.928;9.140;2023-05-07T15:35:27;5.78;;;1.50;;
77222;SDS011;66218;48.928;9.140;2023-05-07T15:37:52;3.38;;;1.33;;
77222;SDS011;66218;48.928;9.140;2023-05-07T15:40:18;2.83;;;1.00;;
77222;SDS011;66218;48.928;9.140;2023-05-07T15:42:44;1.80;;;1.20;;
77222;SDS011;66218;48.928;9.140;2023-05-07T15:47:35;2.25;;;1.42;;